Time;durP1;ratioP1;P1;durP2;ratioP2;P2;SDS_P1;SDS_P2;PMS_P1;PMS_P2;Temp;Humidity;BMP_temperature;BMP_pressure;BME280_temperature;BME280_humidity;BME280_pressure;Samples;Min_cycle;Max_cycle;Signal;HPM_P1;HPM_P2
2023/05/19 00:00:17;;;;;;;0.77;0.77;;;10.60;86.00;;;;;;5019860;28;20172;-72
2023/05/19 00:02:44;;;;;;;0.43;0.43;;;10.70;84.30;;;;;;5019561;28;20195;-72
2023/05/19 00:05:11;;;;;;;0.70;0.70;;;10.80;84.20;;;;;;5019565;28;20316;-72
2023/05/19 00:07:38;;;;;;;0.45;0.45;;;10.70;84.10;;;;;;5019374;28;20199;-70
2023/05/19 00:10:05;;;;;;;0.50;0.50;;;10.70;84.90;;;;;;5019883;28;20542;-71
2023/05/19 00:12:31;;;;;;;0.85;0.50;;;10.70;86.00;;;;;;5019272;28;20207;-72
2023/05/19 00:14:57;;;;;;;0.60;0.60;;;10.70;84.30;;;;;;5019617;28;20191;-72
2023/05/19 00:17:23;;;;;;;0.57;0.57;;;10.80;84.50;;;;;;5019334;28;20172;-71
2023/05/19 00:19:48;;;;;;;10.30;0.93;;;10.80;84.10;;;;;;5019538;28;20406;-72
2023/05/19 00:22:14;;;;;;;0.50;0.50;;;10.70;83.70;;;;;;5019499;28;20491;-69
2023/05/19 00:24:40;;;;;;;1.50;1.43;;;10.90;84.20;;;;;;5016179;28;20246;-70
2023/05/19 00:27:05;;;;;;;1.80;1.30;;;10.70;85.40;;;;;;5016086;28;20202;-71
2023/05/19 00:29:31;;;;;;;1.83;1.07;;;10.70;84.90;;;;;;5016462;28;20722;-71
2023/05/19 00:31:56;;;;;;;0.40;0.40;;;10.70;86.50;;;;;;5016154;28;20183;-71
2023/05/19 00:34:22;;;;;;;0.40;0.40;;;10.70;85.90;;;;;;5016427;28;20172;-70
2023/05/19 00:36:48;;;;;;;1.07;0.93;;;10.70;85.50;;;;;;5016036;28;20175;-71
2023/05/19 00:39:13;;;;;;;5.63;2.03;;;10.60;85.90;;;;;;4998554;28;20176;-72
2023/05/19 00:41:39;;;;;;;0.50;0.50;;;10.50;86.80;;;;;;5015975;28;20624;-71
2023/05/19 00:44:06;;;;;;;2.37;1.53;;;10.50;88.80;;;;;;5016140;28;20172;-70
2023/05/19 00:46:31;;;;;;;0.50;0.45;;;10.60;90.00;;;;;;5015721;28;20266;-71
2023/05/19 00:48:57;;;;;;;3.60;1.07;;;10.50;89.60;;;;;;5015938;28;20180;-70
2023/05/19 00:51:24;;;;;;;1.27;1.17;;;10.60;87.90;;;;;;5016172;28;20249;-71
2023/05/19 00:53:51;;;;;;;0.65;0.65;;;10.40;90.00;;;;;;5015864;28;20658;-70
2023/05/19 00:56:18;;;;;;;0.50;0.50;;;10.30;90.60;;;;;;4998069;28;20690;-72
2023/05/19 00:58:44;;;;;;;0.50;0.50;;;10.30;89.30;;;;;;5015600;28;20414;-70
2023/05/19 01:01:10;;;;;;;1.45;1.08;;;10.40;89.00;;;;;;5015563;28;20195;-72
2023/05/19 01:03:36;;;;;;;0.77;0.77;;;10.40;89.40;;;;;;5015611;28;20610;-71
2023/05/19 01:06:06;;;;;;;2.40;0.80;;;10.50;90.30;;;;;;5015504;28;20283;-70
2023/05/19 01:08:33;;;;;;;0.73;0.70;;;10.50;88.40;;;;;;5015701;28;20187;-70
2023/05/19 01:10:59;;;;;;;0.50;0.50;;;10.50;88.90;;;;;;5015596;28;20199;-71
2023/05/19 01:13:28;;;;;;;0.55;0.55;;;10.30;90.50;;;;;;5015319;28;20198;-71
2023/05/19 01:16:06;;;;;;;0.50;0.50;;;10.30;90.10;;;;;;5015240;28;20175;-72
2023/05/19 01:18:42;;;;;;;2.05;1.60;;;10.40;90.50;;;;;;5015418;28;20281;-72
2023/05/19 01:21:30;;;;;;;10.57;1.35;;;10.40;90.00;;;;;;5015403;28;20198;-72
2023/05/19 01:24:11;;;;;;;9.05;1.20;;;10.50;90.10;;;;;;5015261;28;20156;-72
2023/05/19 01:27:00;;;;;;;1.30;1.20;;;10.50;89.90;;;;;;5015061;28;20221;-70
2023/05/19 01:29:46;;;;;;;0.70;0.70;;;10.50;89.70;;;;;;5015411;28;20163;-69
2023/05/19 01:32:17;;;;;;;0.70;0.70;;;10.40;90.50;;;;;;4997428;28;20434;-70
2023/05/19 01:34:45;;;;;;;5.93;0.90;;;10.50;90.80;;;;;;5015330;28;20164;-71
2023/05/19 01:37:13;;;;;;;0.40;0.40;;;10.40;90.60;;;;;;5014834;28;20171;-71
2023/05/19 01:39:40;;;;;;;0.95;0.93;;;10.40;90.40;;;;;;5015050;28;20743;-70
2023/05/19 01:42:06;;;;;;;0.57;0.57;;;10.40;90.50;;;;;;4997349;28;20230;-70
2023/05/19 01:44:32;;;;;;;3.08;2.90;;;10.40;90.40;;;;;;5015060;28;20178;-70
2023/05/19 01:46:59;;;;;;;2.50;2.40;;;10.40;90.20;;;;;;5014529;28;20710;-70
2023/05/19 01:49:25;;;;;;;0.70;0.70;;;10.40;90.80;;;;;;5015059;28;20180;-71
2023/05/19 01:51:51;;;;;;;0.50;0.50;;;10.40;90.50;;;;;;5014743;28;20198;-71
2023/05/19 01:54:17;;;;;;;3.53;3.22;;;10.50;91.00;;;;;;5014671;28;20518;-71
2023/05/19 01:56:55;;;;;;;0.50;0.50;;;10.20;90.90;;;;;;5014472;28;20183;-70
2023/05/19 01:59:27;;;;;;;1.20;1.15;;;10.10;91.20;;;;;;5014818;28;20265;-72
2023/05/19 02:01:56;;;;;;;0.95;0.82;;;10.20;91.40;;;;;;5014736;28;20620;-71
2023/05/19 02:04:38;;;;;;;1.03;0.93;;;10.30;91.70;;;;;;5014736;28;20183;-70
2023/05/19 02:07:36;;;;;;;1.45;1.23;;;10.30;91.50;;;;;;4996811;28;20977;-70
2023/05/19 02:10:10;;;;;;;0.70;0.70;;;10.30;91.60;;;;;;5008630;28;20274;-72
2023/05/19 02:12:39;;;;;;;1.08;0.98;;;10.30;91.90;;;;;;5014339;28;20575;-72
2023/05/19 02:15:20;;;;;;;1.23;1.13;;;10.10;92.60;;;;;;5014531;28;20168;-72
2023/05/19 02:17:50;;;;;;;0.93;0.60;;;10.20;92.90;;;;;;5014333;28;20172;-70
2023/05/19 02:20:16;;;;;;;0.35;0.35;;;10.20;92.70;;;;;;5014387;28;20525;-71
2023/05/19 02:22:43;;;;;;;2.55;0.80;;;10.20;93.20;;;;;;5014153;28;20191;-72
2023/05/19 02:25:09;;;;;;;0.52;0.52;;;10.20;92.90;;;;;;5014168;28;20183;-70
2023/05/19 02:27:36;;;;;;;0.40;0.40;;;10.00;92.50;;;;;;5013915;28;20636;-69
2023/05/19 02:30:05;;;;;;;1.27;0.95;;;10.00;92.20;;;;;;5014307;28;20203;-72
2023/05/19 02:32:35;;;;;;;0.60;0.60;;;10.10;92.70;;;;;;5013768;28;20702;-71
2023/05/19 02:35:01;;;;;;;1.13;1.02;;;10.20;93.10;;;;;;5014215;28;20175;-69
2023/05/19 02:37:28;;;;;;;0.50;0.50;;;10.20;92.80;;;;;;5013737;28;20230;-69
2023/05/19 02:39:54;;;;;;;0.70;0.70;;;10.10;92.90;;;;;;5013864;28;20178;-70
2023/05/19 02:42:20;;;;;;;0.60;0.60;;;10.10;93.00;;;;;;5013874;28;20195;-71
2023/05/19 02:44:46;;;;;;;0.40;0.40;;;10.10;92.30;;;;;;5014025;28;20179;-69
2023/05/19 02:47:12;;;;;;;0.47;0.47;;;10.10;92.60;;;;;;5012931;28;20671;-71
2023/05/19 02:49:37;;;;;;;1.35;1.25;;;10.10;92.80;;;;;;5013735;28;20195;-70
2023/05/19 02:52:04;;;;;;;1.57;1.47;;;10.10;92.60;;;;;;5013695;28;20249;-70
2023/05/19 02:54:30;;;;;;;2.95;1.45;;;10.10;92.90;;;;;;5013810;28;20628;-71
2023/05/19 02:56:56;;;;;;;0.68;0.68;;;10.00;92.60;;;;;;5013493;28;20186;-70
2023/05/19 02:59:23;;;;;;;0.70;0.70;;;10.10;92.70;;;;;;5013670;28;20535;-72
2023/05/19 03:01:49;;;;;;;1.08;1.08;;;10.20;92.40;;;;;;5013510;28;20204;-70
2023/05/19 03:04:15;;;;;;;0.93;0.65;;;10.30;92.70;;;;;;5013574;28;20175;-71
2023/05/19 03:06:41;;;;;;;0.50;0.50;;;10.20;93.10;;;;;;5013484;28;20289;-71
2023/05/19 03:09:07;;;;;;;0.63;0.63;;;10.20;93.10;;;;;;5013641;28;20168;-72
2023/05/19 03:11:32;;;;;;;2.13;1.70;;;10.20;92.70;;;;;;5013427;28;20202;-72
2023/05/19 03:13:58;;;;;;;0.40;0.40;;;10.30;93.10;;;;;;5013651;28;20470;-69
2023/05/19 03:16:24;;;;;;;1.37;1.27;;;10.20;93.30;;;;;;5013386;28;20171;-71
2023/05/19 03:18:50;;;;;;;2.20;1.53;;;10.20;93.00;;;;;;5013509;28;20648;-70
2023/05/19 03:21:15;;;;;;;1.10;0.88;;;10.20;93.40;;;;;;5013338;28;20533;-71
2023/05/19 03:23:41;;;;;;;0.60;0.60;;;10.30;93.00;;;;;;5013608;28;20225;-70
2023/05/19 03:26:07;;;;;;;1.07;0.87;;;10.30;92.80;;;;;;5013357;28;20219;-69
2023/05/19 03:28:32;;;;;;;0.93;0.93;;;10.30;92.00;;;;;;5013565;28;20195;-71
2023/05/19 03:30:58;;;;;;;1.13;1.03;;;10.20;93.50;;;;;;5011525;28;20544;-69
2023/05/19 03:33:23;;;;;;;1.00;1.00;;;10.00;92.80;;;;;;5012859;28;20213;-70
2023/05/19 03:35:49;;;;;;;1.17;1.17;;;10.10;92.50;;;;;;5013213;28;20168;-70
2023/05/19 03:38:15;;;;;;;2.03;1.53;;;10.10;92.90;;;;;;5011832;28;20200;-72
2023/05/19 03:40:40;;;;;;;0.83;0.83;;;10.40;99.90;;;;;;5013278;28;20182;-71
2023/05/19 03:43:06;;;;;;;2.07;1.93;;;10.20;93.20;;;;;;5013226;28;20659;-72
2023/05/19 03:45:32;;;;;;;0.60;0.60;;;10.20;92.30;;;;;;5013213;28;20167;-71
2023/05/19 03:47:58;;;;;;;0.30;0.30;;;10.20;92.50;;;;;;5013208;28;20962;-71
2023/05/19 03:50:23;;;;;;;0.97;0.97;;;10.30;92.70;;;;;;5013240;28;20528;-71
2023/05/19 03:52:49;;;;;;;1.17;0.83;;;10.30;92.30;;;;;;5013125;28;20192;-70
2023/05/19 03:55:15;;;;;;;1.67;0.90;;;10.30;92.40;;;;;;5013296;28;20527;-69
2023/05/19 03:57:42;;;;;;;0.50;0.50;;;10.30;92.00;;;;;;5013005;28;20683;-71
2023/05/19 04:00:10;;;;;;;0.98;0.45;;;10.20;91.90;;;;;;5016655;28;20406;-70
2023/05/19 04:02:35;;;;;;;0.50;0.50;;;10.30;92.20;;;;;;5016743;28;20196;-70
2023/05/19 04:05:03;;;;;;;0.73;0.50;;;10.30;91.80;;;;;;5016922;28;20517;-72
2023/05/19 04:07:29;;;;;;;1.20;0.88;;;10.30;91.70;;;;;;5016715;28;20556;-71
2023/05/19 04:09:55;;;;;;;0.50;0.50;;;10.40;91.50;;;;;;5016801;28;20176;-71
2023/05/19 04:12:21;;;;;;;0.82;0.82;;;10.30;93.20;;;;;;5016438;28;20453;-71
2023/05/19 04:14:47;;;;;;;1.03;0.90;;;10.20;93.60;;;;;;5016789;28;20179;-72
2023/05/19 04:17:12;;;;;;;3.03;1.47;;;10.20;94.70;;;;;;5016522;28;20172;-71
2023/05/19 04:19:39;;;;;;;0.73;0.73;;;10.10;94.60;;;;;;5016600;28;20168;-70
2023/05/19 04:22:04;;;;;;;2.33;0.50;;;10.20;93.10;;;;;;5016385;28;20559;-70
2023/05/19 04:24:30;;;;;;;1.37;1.27;;;10.30;92.30;;;;;;5016473;28;20176;-72
2023/05/19 04:26:56;;;;;;;1.17;1.17;;;10.40;92.20;;;;;;5016199;28;20199;-71
2023/05/19 04:29:22;;;;;;;1.37;0.87;;;10.30;92.80;;;;;;5016346;28;20187;-70
2023/05/19 04:31:48;;;;;;;0.60;0.60;;;10.30;92.20;;;;;;5016210;28;20219;-72
2023/05/19 04:34:13;;;;;;;0.90;0.57;;;10.40;92.30;;;;;;5016350;28;20203;-71
2023/05/19 04:36:40;;;;;;;0.40;0.40;;;10.30;92.00;;;;;;5016046;28;20222;-71
2023/05/19 04:39:08;;;;;;;1.05;1.05;;;10.20;92.60;;;;;;5015977;28;20167;-70
2023/05/19 04:41:34;;;;;;;0.60;0.60;;;10.20;92.50;;;;;;5016049;28;20194;-72
2023/05/19 04:43:59;;;;;;;0.50;0.50;;;10.50;92.80;;;;;;5016058;28;20655;-70
2023/05/19 04:46:25;;;;;;;0.43;0.43;;;10.70;92.70;;;;;;5015798;28;20195;-69
2023/05/19 04:48:55;;;;;;;0.53;0.53;;;10.80;92.10;;;;;;5016021;28;20473;-71
2023/05/19 04:51:27;;;;;;;0.50;0.50;;;11.00;92.50;;;;;;5015814;28;20793;-72
2023/05/19 04:53:54;;;;;;;0.50;0.50;;;11.10;92.10;;;;;;5015883;28;20873;-72
2023/05/19 04:56:20;;;;;;;0.53;0.53;;;11.30;91.60;;;;;;5015662;28;20176;-71
2023/05/19 04:58:46;;;;;;;0.60;0.60;;;11.50;91.70;;;;;;4998211;28;20840;-72
2023/05/19 05:01:12;;;;;;;0.50;0.50;;;11.60;89.70;;;;;;5015597;28;20458;-70
2023/05/19 05:03:38;;;;;;;2.10;1.50;;;11.70;90.40;;;;;;5015620;28;20890;-71
2023/05/19 05:06:05;;;;;;;1.20;1.10;;;11.80;90.50;;;;;;4997727;28;20513;-71
2023/05/19 05:08:30;;;;;;;0.70;0.70;;;11.80;89.30;;;;;;5015706;28;20245;-71
2023/05/19 05:10:56;;;;;;;0.50;0.50;;;11.80;89.80;;;;;;5014985;28;20922;-72
2023/05/19 05:13:23;;;;;;;0.60;0.60;;;11.70;88.80;;;;;;5015432;28;20555;-70
2023/05/19 05:15:50;;;;;;;0.37;0.37;;;11.60;90.00;;;;;;5015330;28;20410;-70
2023/05/19 05:18:17;;;;;;;0.50;0.50;;;11.70;90.70;;;;;;5012078;28;20414;-72
2023/05/19 05:20:45;;;;;;;0.80;0.80;;;11.70;97.80;;;;;;5015424;28;20517;-70
2023/05/19 05:23:13;;;;;;;0.87;0.87;;;11.60;89.50;;;;;;5015264;28;20414;-71
2023/05/19 05:25:40;;;;;;;0.77;0.77;;;11.60;89.80;;;;;;5015069;28;20764;-70
2023/05/19 05:28:06;;;;;;;0.50;0.50;;;11.80;87.50;;;;;;5015465;28;20561;-71
2023/05/19 05:30:33;;;;;;;0.60;0.60;;;11.90;96.90;;;;;;5015236;28;20878;-69
2023/05/19 05:32:59;;;;;;;0.70;0.70;;;11.80;88.60;;;;;;4997558;28;20632;-70
2023/05/19 05:35:25;;;;;;;0.50;0.50;;;11.70;88.30;;;;;;5015101;28;20476;-70
2023/05/19 05:37:51;;;;;;;0.60;0.60;;;11.90;89.50;;;;;;5015427;28;20447;-70
2023/05/19 05:40:16;;;;;;;0.97;0.97;;;12.00;90.20;;;;;;5015035;28;20171;-72
2023/05/19 05:42:42;;;;;;;0.53;0.53;;;12.10;88.20;;;;;;5014881;28;20553;-69
2023/05/19 05:45:08;;;;;;;0.40;0.40;;;12.20;88.80;;;;;;5015038;28;20175;-70
2023/05/19 05:47:37;;;;;;;1.43;0.97;;;12.30;89.30;;;;;;5014777;28;20199;-72
2023/05/19 05:50:04;;;;;;;0.70;0.50;;;12.40;88.50;;;;;;5014732;28;20256;-71
2023/05/19 05:52:31;;;;;;;0.70;0.70;;;12.60;87.40;;;;;;5015114;28;20511;-72
2023/05/19 05:54:57;;;;;;;0.80;0.80;;;12.80;87.50;;;;;;5014641;28;20418;-69
2023/05/19 05:57:23;;;;;;;0.77;0.77;;;12.90;87.70;;;;;;5014634;28;20758;-72
2023/05/19 05:59:49;;;;;;;0.97;0.93;;;13.00;85.30;;;;;;5014736;28;20406;-70
2023/05/19 06:02:16;;;;;;;0.40;0.40;;;13.10;85.70;;;;;;5014447;28;20218;-72
2023/05/19 06:04:42;;;;;;;0.47;0.47;;;13.30;84.90;;;;;;4996869;28;20426;-71
2023/05/19 06:07:08;;;;;;;0.67;0.67;;;13.50;83.20;;;;;;5014281;28;20852;-72
2023/05/19 06:09:34;;;;;;;0.30;0.30;;;13.30;81.90;;;;;;5014526;28;20453;-71
2023/05/19 06:12:00;;;;;;;0.70;0.60;;;13.30;82.30;;;;;;5014387;28;20454;-72
2023/05/19 06:14:26;;;;;;;0.30;0.30;;;13.40;81.80;;;;;;5014560;28;20281;-72
2023/05/19 06:16:51;;;;;;;0.90;0.90;;;13.40;81.40;;;;;;5014189;28;20422;-70
2023/05/19 06:19:18;;;;;;;1.00;0.90;;;13.50;82.60;;;;;;5014454;28;20203;-70
2023/05/19 06:21:44;;;;;;;1.30;1.30;;;13.90;81.10;;;;;;5013305;28;20194;-72
2023/05/19 06:24:10;;;;;;;0.93;0.80;;;14.30;79.90;;;;;;5014421;28;20820;-70
2023/05/19 06:26:36;;;;;;;1.03;1.03;;;14.70;79.60;;;;;;5014008;28;20210;-69
2023/05/19 06:29:02;;;;;;;0.60;0.60;;;14.70;78.90;;;;;;5014290;28;20194;-72
2023/05/19 06:31:28;;;;;;;0.60;0.50;;;15.00;77.10;;;;;;5014084;28;20430;-72
2023/05/19 06:33:53;;;;;;;1.23;0.70;;;14.90;76.70;;;;;;5014427;28;20538;-71
2023/05/19 06:36:19;;;;;;;0.57;0.57;;;15.40;75.60;;;;;;5013913;28;20411;-70
2023/05/19 06:38:44;;;;;;;0.60;0.60;;;16.70;75.00;;;;;;5014011;28;20253;-70
2023/05/19 06:41:10;;;;;;;1.47;1.13;;;18.30;70.70;;;;;;5013993;28;20188;-70
2023/05/19 06:43:36;;;;;;;0.50;0.50;;;18.80;67.60;;;;;;5013997;28;20176;-71
2023/05/19 06:46:01;;;;;;;0.40;0.40;;;19.70;62.80;;;;;;5013769;28;20212;-70
2023/05/19 06:48:27;;;;;;;0.73;0.50;;;20.20;58.60;;;;;;5014024;28;20679;-72
2023/05/19 06:50:53;;;;;;;0.80;0.50;;;21.00;57.60;;;;;;5013932;28;20494;-71
2023/05/19 06:53:22;;;;;;;0.40;0.40;;;21.80;57.20;;;;;;5013933;28;20225;-72
2023/05/19 06:55:49;;;;;;;1.37;0.73;;;21.70;54.20;;;;;;5013576;28;20260;-70
2023/05/19 06:58:15;;;;;;;0.60;0.60;;;20.00;55.40;;;;;;5013844;28;20490;-71
2023/05/19 07:00:40;;;;;;;0.40;0.40;;;20.10;66.00;;;;;;5013587;28;20501;-73
2023/05/19 07:03:06;;;;;;;0.80;0.50;;;20.30;55.20;;;;;;5013673;28;20497;-72
2023/05/19 07:05:32;;;;;;;0.50;0.50;;;21.00;55.90;;;;;;5013406;28;20245;-72
2023/05/19 07:07:57;;;;;;;0.40;0.40;;;21.90;53.40;;;;;;5013379;28;20545;-73
2023/05/19 07:10:23;;;;;;;0.70;0.60;;;22.30;53.00;;;;;;5013582;28;20182;-72
2023/05/19 07:12:49;;;;;;;0.50;0.50;;;22.10;52.00;;;;;;5013159;28;20296;-72
2023/05/19 07:15:14;;;;;;;0.50;0.50;;;22.00;51.40;;;;;;5013650;28;20226;-70
2023/05/19 07:17:40;;;;;;;0.43;0.43;;;20.90;52.10;;;;;;5013294;28;20182;-69
2023/05/19 07:20:08;;;;;;;0.77;0.77;;;19.10;53.80;;;;;;5012075;28;20223;-71
2023/05/19 07:22:35;;;;;;;0.50;0.50;;;18.20;57.00;;;;;;5013601;28;20196;-71
2023/05/19 07:25:00;;;;;;;0.80;0.80;;;19.10;58.50;;;;;;5013818;28;20406;-72
2023/05/19 07:27:26;;;;;;;0.50;0.50;;;20.10;54.80;;;;;;5013236;28;20465;-72
2023/05/19 07:29:52;;;;;;;2.10;0.57;;;21.30;54.10;;;;;;5014079;28;20495;-72
2023/05/19 07:32:17;;;;;;;0.40;0.40;;;22.10;51.70;;;;;;5010909;28;20196;-72
2023/05/19 07:34:43;;;;;;;0.40;0.40;;;23.20;51.70;;;;;;5014628;28;20542;-73
2023/05/19 07:37:09;;;;;;;0.40;0.40;;;24.40;49.30;;;;;;5016568;28;20217;-71
2023/05/19 07:39:35;;;;;;;0.40;0.40;;;25.50;47.90;;;;;;5017387;28;20171;-72
2023/05/19 07:42:01;;;;;;;0.40;0.40;;;25.20;44.40;;;;;;5017103;28;20679;-72
2023/05/19 07:44:30;;;;;;;0.40;0.40;;;25.30;46.10;;;;;;5017444;28;20506;-72
2023/05/19 07:46:55;;;;;;;0.30;0.30;;;25.70;44.20;;;;;;5016851;28;20454;-74
2023/05/19 07:49:21;;;;;;;0.60;0.60;;;26.70;43.40;;;;;;5017166;28;20813;-73
2023/05/19 07:51:47;;;;;;;0.80;0.80;;;27.40;41.20;;;;;;5017004;28;20271;-73
2023/05/19 07:54:13;;;;;;;0.70;0.70;;;27.90;40.50;;;;;;5017087;28;20175;-71
2023/05/19 07:56:38;;;;;;;0.50;0.50;;;26.80;40.70;;;;;;5016822;28;20429;-73
2023/05/19 07:59:04;;;;;;;0.60;0.60;;;26.30;41.30;;;;;;5017290;28;20536;-73
2023/05/19 08:01:31;;;;;;;0.77;0.43;;;24.30;43.60;;;;;;5016887;28;20229;-71
2023/05/19 08:03:57;;;;;;;0.60;0.60;;;23.50;46.60;;;;;;5016852;28;20201;-72
2023/05/19 08:06:24;;;;;;;0.50;0.40;;;23.90;44.50;;;;;;5016476;28;20821;-71
2023/05/19 08:08:49;;;;;;;0.67;0.60;;;25.20;44.10;;;;;;5016858;28;20848;-73
2023/05/19 08:11:15;;;;;;;0.80;0.53;;;26.70;42.30;;;;;;5014589;28;20517;-71
2023/05/19 08:13:41;;;;;;;0.47;0.47;;;27.20;40.60;;;;;;5016265;28;20172;-72
2023/05/19 08:16:07;;;;;;;0.60;0.60;;;27.10;40.00;;;;;;5015802;28;20628;-73
2023/05/19 08:18:33;;;;;;;0.50;0.50;;;26.30;41.20;;;;;;4997134;28;20613;-73
2023/05/19 08:21:00;;;;;;;0.37;0.37;;;25.90;42.10;;;;;;4997683;28;20286;-73
2023/05/19 08:23:26;;;;;;;0.70;0.67;;;25.00;42.90;;;;;;5015572;28;20410;-72
2023/05/19 08:25:51;;;;;;;0.60;0.57;;;23.50;45.50;;;;;;5015317;28;20425;-72
2023/05/19 08:28:17;;;;;;;0.50;0.40;;;22.80;46.40;;;;;;5015424;28;20519;-72
2023/05/19 08:30:43;;;;;;;0.43;0.43;;;23.00;54.20;;;;;;5015431;28;20176;-73
2023/05/19 08:33:08;;;;;;;0.57;0.57;;;22.80;45.10;;;;;;5016199;28;20167;-73
2023/05/19 08:35:34;;;;;;;0.70;0.60;;;22.10;46.20;;;;;;5016192;28;20627;-73
2023/05/19 08:37:59;;;;;;;0.67;0.67;;;21.90;46.60;;;;;;5016343;28;20178;-72
2023/05/19 08:40:30;;;;;;;0.40;0.40;;;21.20;47.50;;;;;;5016229;28;20602;-72
2023/05/19 08:42:55;;;;;;;0.50;0.40;;;20.10;50.70;;;;;;5013425;28;20186;-73
2023/05/19 08:45:21;;;;;;;0.50;0.50;;;19.70;50.40;;;;;;5012178;28;20886;-72
2023/05/19 08:47:49;;;;;;;0.60;0.60;;;18.80;51.90;;;;;;5014518;28;20214;-69
2023/05/19 08:50:20;;;;;;;0.80;0.77;;;18.40;53.30;;;;;;5012628;28;20192;-71
2023/05/19 08:52:56;;;;;;;0.53;0.53;;;18.30;53.70;;;;;;5014413;28;20423;-70
2023/05/19 08:55:34;;;;;;;0.30;0.30;;;18.10;54.40;;;;;;5014024;28;20403;-71
2023/05/19 08:58:02;;;;;;;1.07;0.43;;;18.40;55.00;;;;;;5013741;28;20783;-70
2023/05/19 09:00:28;;;;;;;0.50;0.50;;;18.80;54.80;;;;;;5015901;28;20456;-70
2023/05/19 09:02:54;;;;;;;0.50;0.50;;;19.50;54.30;;;;;;5014496;28;20478;-72
2023/05/19 09:05:20;;;;;;;0.40;0.40;;;19.50;53.60;;;;;;5015019;28;20787;-70
2023/05/19 09:07:47;;;;;;;0.60;0.60;;;19.70;53.30;;;;;;5016070;28;20198;-71
2023/05/19 09:10:14;;;;;;;0.93;0.83;;;19.90;52.90;;;;;;5013037;28;21164;-72
2023/05/19 09:12:45;;;;;;;0.50;0.50;;;20.00;53.40;;;;;;4997234;28;20944;-71
2023/05/19 09:15:12;;;;;;;0.60;0.60;;;20.10;52.90;;;;;;5015959;28;20401;-72
2023/05/19 09:17:38;;;;;;;0.50;0.50;;;20.40;54.00;;;;;;5012005;28;20434;-70
2023/05/19 09:20:11;;;;;;;0.40;0.40;;;21.10;51.60;;;;;;5014421;28;20406;-71
2023/05/19 09:22:46;;;;;;;0.40;0.37;;;21.60;50.40;;;;;;5014358;28;20441;-71
2023/05/19 09:25:21;;;;;;;0.50;0.50;;;21.40;49.60;;;;;;5014398;28;20948;-72
2023/05/19 09:27:48;;;;;;;0.80;0.60;;;20.70;51.20;;;;;;5014283;28;20523;-71
2023/05/19 09:30:15;;;;;;;0.77;0.50;;;20.40;52.30;;;;;;5014230;28;20440;-70
2023/05/19 09:32:41;;;;;;;0.47;0.47;;;20.10;52.90;;;;;;5015055;28;20490;-70
2023/05/19 09:35:07;;;;;;;1.03;1.03;;;19.70;54.30;;;;;;5015260;28;20399;-71
2023/05/19 09:37:33;;;;;;;0.40;0.40;;;19.60;53.50;;;;;;5014961;28;20402;-71
2023/05/19 09:39:59;;;;;;;0.50;0.50;;;19.60;55.30;;;;;;5014974;28;21033;-70
2023/05/19 09:42:26;;;;;;;1.00;1.00;;;19.40;54.70;;;;;;5015015;28;20188;-69
2023/05/19 09:45:01;;;;;;;0.70;0.70;;;19.20;55.70;;;;;;5014978;28;20169;-71
2023/05/19 09:47:26;;;;;;;0.57;0.57;;;19.20;55.30;;;;;;5014575;28;20822;-72
2023/05/19 09:49:53;;;;;;;0.50;0.50;;;19.20;55.80;;;;;;5014788;28;20407;-71
2023/05/19 09:52:20;;;;;;;0.50;0.50;;;18.90;55.10;;;;;;5014936;28;20194;-72
2023/05/19 09:54:47;;;;;;;0.40;0.40;;;18.60;54.10;;;;;;5014702;28;20436;-71
2023/05/19 09:57:13;;;;;;;1.03;1.03;;;18.40;55.10;;;;;;5013938;28;20450;-72
2023/05/19 09:59:39;;;;;;;0.50;0.50;;;18.00;56.30;;;;;;5012893;28;20403;-71
2023/05/19 10:02:12;;;;;;;0.40;0.40;;;17.70;56.40;;;;;;5014273;28;20197;-72
2023/05/19 10:04:38;;;;;;;0.70;0.70;;;17.50;58.30;;;;;;5013908;28;20772;-70
2023/05/19 10:07:05;;;;;;;0.83;0.60;;;17.40;56.90;;;;;;5012678;28;20469;-70
2023/05/19 10:09:32;;;;;;;1.43;0.60;;;16.70;57.70;;;;;;5014036;28;20774;-74
2023/05/19 10:11:58;;;;;;;0.50;0.50;;;16.60;59.90;;;;;;5010411;28;20458;-69
2023/05/19 10:14:28;;;;;;;0.60;0.60;;;16.90;58.30;;;;;;4993007;28;20425;-71
2023/05/19 10:16:56;;;;;;;0.80;0.80;;;17.00;58.20;;;;;;5013370;28;20172;-71
2023/05/19 10:19:26;;;;;;;1.53;1.43;;;17.00;57.70;;;;;;5013623;28;20464;-71
2023/05/19 10:21:53;;;;;;;0.60;0.60;;;17.00;57.90;;;;;;5014166;28;20430;-71
2023/05/19 10:24:20;;;;;;;0.50;0.50;;;17.00;57.50;;;;;;5012415;28;20422;-71
2023/05/19 10:27:04;;;;;;;1.10;1.00;;;17.00;58.30;;;;;;5013979;28;20456;-70
2023/05/19 10:29:35;;;;;;;0.70;0.70;;;16.40;59.20;;;;;;5013435;28;20746;-71
2023/05/19 10:32:10;;;;;;;0.90;0.87;;;16.10;60.00;;;;;;5012046;28;20438;-71
2023/05/19 10:35:19;;;;;;;1.23;0.50;;;16.30;59.90;;;;;;5013483;28;20402;-71
2023/05/19 10:37:45;;;;;;;0.40;0.40;;;16.60;58.80;;;;;;4993830;28;20670;-71
2023/05/19 10:40:29;;;;;;;0.40;0.40;;;17.00;58.40;;;;;;5013364;28;20836;-71
2023/05/19 10:43:28;;;;;;;0.70;0.70;;;17.10;58.10;;;;;;5013386;28;20172;-71
2023/05/19 10:45:56;;;;;;;0.73;0.67;;;17.10;58.70;;;;;;5012575;28;20402;-71
2023/05/19 10:48:22;;;;;;;2.60;1.03;;;16.90;60.00;;;;;;5012828;28;20477;-72
2023/05/19 10:50:51;;;;;;;0.30;0.30;;;17.30;74.30;;;;;;5013680;28;20503;-74
2023/05/19 10:53:19;;;;;;;1.07;0.60;;;17.30;59.70;;;;;;4995196;28;20175;-71
2023/05/19 10:55:50;;;;;;;0.60;0.60;;;17.50;59.90;;;;;;5012867;28;20425;-71
2023/05/19 10:58:35;;;;;;;0.70;0.70;;;17.60;60.00;;;;;;5014266;28;20892;-72
2023/05/19 11:01:01;;;;;;;0.50;0.50;;;17.50;59.00;;;;;;5011928;28;20425;-72
2023/05/19 11:03:27;;;;;;;0.60;0.60;;;17.50;60.20;;;;;;5013824;28;20440;-71
2023/05/19 11:06:19;;;;;;;9.63;0.73;;;17.30;58.90;;;;;;5013467;28;20184;-71
2023/05/19 11:08:46;;;;;;;0.57;0.57;;;17.20;61.00;;;;;;5013092;28;20411;-74
2023/05/19 11:11:16;;;;;;;0.60;0.60;;;17.40;61.30;;;;;;5013504;28;20427;-70
2023/05/19 11:13:53;;;;;;;0.50;0.50;;;17.50;60.60;;;;;;5011667;28;20784;-69
2023/05/19 11:16:30;;;;;;;0.40;0.40;;;17.30;59.40;;;;;;5013574;28;20418;-68
2023/05/19 11:18:58;;;;;;;0.67;0.67;;;17.10;59.30;;;;;;5013762;28;20406;-69
2023/05/19 11:21:40;;;;;;;1.40;1.17;;;16.90;60.20;;;;;;5013625;28;20474;-68
2023/05/19 11:24:09;;;;;;;0.70;0.50;;;16.80;62.70;;;;;;5013683;28;20405;-68
2023/05/19 11:26:42;;;;;;;0.50;0.47;;;16.60;61.70;;;;;;5013352;28;20460;-69
2023/05/19 11:29:08;;;;;;;0.60;0.60;;;16.50;62.00;;;;;;4996362;28;20810;-69
2023/05/19 11:31:35;;;;;;;0.50;0.50;;;16.50;62.60;;;;;;5013387;28;20537;-69
2023/05/19 11:34:01;;;;;;;0.70;0.70;;;16.60;61.60;;;;;;5013472;28;20177;-70
2023/05/19 11:36:27;;;;;;;0.57;0.57;;;16.70;61.20;;;;;;5013402;28;20410;-70
2023/05/19 11:38:53;;;;;;;0.40;0.40;;;16.50;61.90;;;;;;5013412;28;20423;-70
2023/05/19 11:41:20;;;;;;;0.80;0.80;;;16.40;62.90;;;;;;5013455;28;20437;-72
2023/05/19 11:43:46;;;;;;;0.40;0.40;;;16.60;63.00;;;;;;5013843;28;20464;-69
2023/05/19 11:46:12;;;;;;;0.60;0.60;;;16.80;61.40;;;;;;5013316;28;20465;-69
2023/05/19 11:48:38;;;;;;;0.37;0.37;;;16.90;61.60;;;;;;5011401;28;20745;-69
2023/05/19 11:51:05;;;;;;;0.70;0.70;;;16.90;62.00;;;;;;5012724;28;20198;-69
2023/05/19 11:53:35;;;;;;;1.43;1.43;;;16.70;61.00;;;;;;5012894;28;20425;-72
2023/05/19 11:56:03;;;;;;;2.20;1.60;;;16.70;61.40;;;;;;5010136;28;20761;-69
2023/05/19 11:58:29;;;;;;;0.40;0.40;;;16.60;62.90;;;;;;5010736;28;20911;-69
2023/05/19 12:00:54;;;;;;;0.60;0.60;;;16.50;62.70;;;;;;5012414;28;20457;-69
2023/05/19 12:03:27;;;;;;;0.57;0.57;;;16.50;63.80;;;;;;5011129;28;20639;-69
2023/05/19 12:05:53;;;;;;;0.40;0.40;;;16.60;63.90;;;;;;5012701;28;20542;-69
2023/05/19 12:08:18;;;;;;;0.80;0.80;;;16.60;64.00;;;;;;5013136;28;20402;-69
2023/05/19 12:10:47;;;;;;;0.50;0.40;;;16.80;80.40;;;;;;5013206;28;20233;-69
2023/05/19 12:13:13;;;;;;;0.50;0.50;;;16.50;65.50;;;;;;5012927;28;20237;-70
2023/05/19 12:15:39;;;;;;;1.80;1.13;;;16.60;62.90;;;;;;5013062;28;20399;-69
2023/05/19 12:18:05;;;;;;;0.40;0.40;;;16.40;63.10;;;;;;5013347;28;20399;-69
2023/05/19 12:20:34;;;;;;;0.70;0.67;;;16.40;65.60;;;;;;4997889;28;20636;-70
2023/05/19 12:23:00;;;;;;;1.13;0.93;;;16.50;65.30;;;;;;5016674;28;20478;-69
2023/05/19 12:25:29;;;;;;;0.70;0.50;;;16.70;64.80;;;;;;5016280;28;20419;-70
2023/05/19 12:28:01;;;;;;;0.60;0.60;;;16.80;64.20;;;;;;5016542;28;20949;-69
2023/05/19 12:30:28;;;;;;;1.03;0.80;;;16.90;65.70;;;;;;5016385;28;20913;-70
2023/05/19 12:32:57;;;;;;;0.60;0.60;;;17.00;64.30;;;;;;5016279;28;20418;-69
2023/05/19 12:35:34;;;;;;;0.40;0.40;;;17.00;64.80;;;;;;5016083;28;20421;-69
2023/05/19 12:38:04;;;;;;;0.40;0.40;;;17.00;65.70;;;;;;5016433;28;20976;-70
2023/05/19 12:40:30;;;;;;;2.73;1.30;;;;;;;;;;5016144;28;20410;-69
2023/05/19 12:42:57;;;;;;;0.50;0.50;;;17.00;64.30;;;;;;5016149;28;20402;-70
2023/05/19 12:45:26;;;;;;;0.73;0.73;;;17.00;64.60;;;;;;5015965;28;20410;-69
2023/05/19 12:47:52;;;;;;;1.90;0.90;;;17.00;64.50;;;;;;5016200;28;20453;-69
2023/05/19 12:50:18;;;;;;;2.00;0.97;;;16.90;65.10;;;;;;5016167;28;20406;-69